sensor_id;sensor_type;location;lat;lon;timestamp;P1;durP1;ratioP1;P2;durP2;ratioP2
75680;SDS011;64294;49.176;16.626;2023-04-03T00:01:15;5.00;;;2.10;;
75680;SDS011;64294;49.176;16.626;2023-04-03T00:03:41;3.65;;;2.13;;
75680;SDS011;64294;49.176;16.626;2023-04-03T00:06:07;2.97;;;1.83;;
75680;SDS011;64294;49.176;16.626;2023-04-03T00:08:34;2.30;;;1.77;;
75680;SDS011;64294;49.176;16.626;2023-04-03T00:11:00;4.50;;;2.08;;
75680;SDS011;64294;49.176;16.626;2023-04-03T00:13:26;3.28;;;1.67;;
75680;SDS011;64294;49.176;16.626;2023-04-03T00:15:52;2.58;;;1.88;;
75680;SDS011;64294;49.176;16.626;2023-04-03T00:18:18;2.38;;;1.77;;
75680;SDS011;64294;49.176;16.626;2023-04-03T00:20:43;3.15;;;1.92;;
75680;SDS011;64294;49.176;16.626;2023-04-03T00:23:09;4.30;;;1.80;;
75680;SDS011;64294;49.176;16.626;2023-04-03T00:25:35;3.08;;;1.88;;
75680;SDS011;64294;49.176;16.626;2023-04-03T00:28:01;2.92;;;1.80;;
75680;SDS011;64294;49.176;16.626;2023-04-03T00:30:27;2.53;;;1.80;;
75680;SDS011;64294;49.176;16.626;2023-04-03T00:32:52;3.13;;;1.65;;
75680;SDS011;64294;49.176;16.626;2023-04-03T00:35:18;2.38;;;1.70;;
75680;SDS011;64294;49.176;16.626;2023-04-03T00:37:46;2.70;;;1.88;;
75680;SDS011;64294;49.176;16.626;2023-04-03T00:40:13;2.58;;;1.60;;
75680;SDS011;64294;49.176;16.626;2023-04-03T00:42:40;2.53;;;1.70;;
75680;SDS011;64294;49.176;16.626;2023-04-03T00:48:37;3.63;;;1.98;;
75680;SDS011;64294;49.176;16.626;2023-04-03T00:51:06;2.60;;;1.70;;
75680;SDS011;64294;49.176;16.626;2023-04-03T00:53:39;3.20;;;1.92;;
75680;SDS011;64294;49.176;16.626;2023-04-03T00:58:57;2.22;;;1.65;;
75680;SDS011;64294;49.176;16.626;2023-04-03T01:01:22;3.85;;;1.80;;
75680;SDS011;64294;49.176;16.626;2023-04-03T01:03:49;4.22;;;2.00;;
75680;SDS011;64294;49.176;16.626;2023-04-03T01:06:20;3.55;;;1.70;;
75680;SDS011;64294;49.176;16.626;2023-04-03T01:08:48;2.72;;;1.77;;
75680;SDS011;64294;49.176;16.626;2023-04-03T01:11:15;2.97;;;1.90;;
75680;SDS011;64294;49.176;16.626;2023-04-03T01:13:40;4.25;;;1.90;;
75680;SDS011;64294;49.176;16.626;2023-04-03T01:16:06;3.08;;;1.92;;
75680;SDS011;64294;49.176;16.626;2023-04-03T01:18:32;3.03;;;1.83;;
75680;SDS011;64294;49.176;16.626;2023-04-03T01:24:08;2.63;;;1.90;;
75680;SDS011;64294;49.176;16.626;2023-04-03T01:26:44;2.75;;;1.80;;
75680;SDS011;64294;49.176;16.626;2023-04-03T01:29:10;3.90;;;1.95;;
75680;SDS011;64294;49.176;16.626;2023-04-03T01:34:24;3.00;;;1.92;;
75680;SDS011;64294;49.176;16.626;2023-04-03T01:36:50;3.00;;;1.95;;
75680;SDS011;64294;49.176;16.626;2023-04-03T01:39:16;3.97;;;2.22;;
75680;SDS011;64294;49.176;16.626;2023-04-03T01:41:42;3.60;;;2.10;;
75680;SDS011;64294;49.176;16.626;2023-04-03T01:44:07;3.63;;;2.33;;
75680;SDS011;64294;49.176;16.626;2023-04-03T01:46:33;5.40;;;2.83;;
75680;SDS011;64294;49.176;16.626;2023-04-03T01:48:58;3.88;;;2.15;;
75680;SDS011;64294;49.176;16.626;2023-04-03T01:51:24;4.25;;;2.65;;
75680;SDS011;64294;49.176;16.626;2023-04-03T01:53:49;3.08;;;2.25;;
75680;SDS011;64294;49.176;16.626;2023-04-03T01:56:16;4.60;;;2.40;;
75680;SDS011;64294;49.176;16.626;2023-04-03T01:58:41;6.07;;;2.50;;
75680;SDS011;64294;49.176;16.626;2023-04-03T02:01:07;3.97;;;2.63;;
75680;SDS011;64294;49.176;16.626;2023-04-03T02:03:32;6.45;;;2.72;;
75680;SDS011;64294;49.176;16.626;2023-04-03T02:05:58;4.32;;;2.50;;
75680;SDS011;64294;49.176;16.626;2023-04-03T02:08:23;6.03;;;2.67;;
75680;SDS011;64294;49.176;16.626;2023-04-03T02:10:49;5.68;;;2.80;;
75680;SDS011;64294;49.176;16.626;2023-04-03T02:13:15;6.10;;;2.75;;
75680;SDS011;64294;49.176;16.626;2023-04-03T02:15:42;6.00;;;2.92;;
75680;SDS011;64294;49.176;16.626;2023-04-03T02:18:07;3.33;;;2.58;;
75680;SDS011;64294;49.176;16.626;2023-04-03T02:20:33;5.47;;;2.60;;
75680;SDS011;64294;49.176;16.626;2023-04-03T02:22:58;4.65;;;2.80;;
75680;SDS011;64294;49.176;16.626;2023-04-03T02:25:24;4.55;;;2.47;;
75680;SDS011;64294;49.176;16.626;2023-04-03T02:27:50;4.88;;;2.88;;
75680;SDS011;64294;49.176;16.626;2023-04-03T02:30:15;5.43;;;2.72;;
75680;SDS011;64294;49.176;16.626;2023-04-03T02:32:41;4.20;;;2.47;;
75680;SDS011;64294;49.176;16.626;2023-04-03T02:35:08;4.22;;;2.72;;
75680;SDS011;64294;49.176;16.626;2023-04-03T02:37:34;3.92;;;2.58;;
75680;SDS011;64294;49.176;16.626;2023-04-03T02:39:59;5.05;;;2.88;;
75680;SDS011;64294;49.176;16.626;2023-04-03T02:42:25;5.85;;;2.97;;
75680;SDS011;64294;49.176;16.626;2023-04-03T02:44:51;7.10;;;2.95;;
75680;SDS011;64294;49.176;16.626;2023-04-03T02:47:16;4.95;;;3.00;;
75680;SDS011;64294;49.176;16.626;2023-04-03T02:49:42;5.13;;;2.72;;
75680;SDS011;64294;49.176;16.626;2023-04-03T02:52:10;4.57;;;2.67;;
75680;SDS011;64294;49.176;16.626;2023-04-03T02:54:35;4.53;;;2.80;;
75680;SDS011;64294;49.176;16.626;2023-04-03T02:57:00;5.88;;;2.95;;
75680;SDS011;64294;49.176;16.626;2023-04-03T02:59:26;9.70;;;3.15;;
75680;SDS011;64294;49.176;16.626;2023-04-03T03:01:51;4.40;;;2.60;;
75680;SDS011;64294;49.176;16.626;2023-04-03T03:04:17;5.15;;;3.03;;
75680;SDS011;64294;49.176;16.626;2023-04-03T03:06:42;5.95;;;3.30;;
75680;SDS011;64294;49.176;16.626;2023-04-03T03:09:08;4.90;;;2.75;;
75680;SDS011;64294;49.176;16.626;2023-04-03T03:11:33;4.13;;;2.55;;
75680;SDS011;64294;49.176;16.626;2023-04-03T03:13:58;6.15;;;3.05;;
75680;SDS011;64294;49.176;16.626;2023-04-03T03:16:24;7.57;;;3.20;;
75680;SDS011;64294;49.176;16.626;2023-04-03T03:18:49;6.40;;;3.25;;
75680;SDS011;64294;49.176;16.626;2023-04-03T03:21:15;6.25;;;3.42;;
75680;SDS011;64294;49.176;16.626;2023-04-03T03:23:40;5.82;;;3.17;;
75680;SDS011;64294;49.176;16.626;2023-04-03T03:26:08;7.47;;;3.30;;
75680;SDS011;64294;49.176;16.626;2023-04-03T03:28:34;5.35;;;3.22;;
75680;SDS011;64294;49.176;16.626;2023-04-03T03:31:02;6.10;;;3.15;;
75680;SDS011;64294;49.176;16.626;2023-04-03T03:33:27;13.27;;;3.50;;
75680;SDS011;64294;49.176;16.626;2023-04-03T03:35:53;6.93;;;3.45;;
75680;SDS011;64294;49.176;16.626;2023-04-03T03:38:19;7.95;;;3.38;;
75680;SDS011;64294;49.176;16.626;2023-04-03T03:40:46;8.90;;;3.42;;
75680;SDS011;64294;49.176;16.626;2023-04-03T03:43:12;6.47;;;3.30;;
75680;SDS011;64294;49.176;16.626;2023-04-03T03:45:38;7.68;;;3.45;;
75680;SDS011;64294;49.176;16.626;2023-04-03T03:48:03;6.40;;;3.55;;
75680;SDS011;64294;49.176;16.626;2023-04-03T03:50:29;7.70;;;3.72;;
75680;SDS011;64294;49.176;16.626;2023-04-03T03:52:54;8.43;;;3.97;;
75680;SDS011;64294;49.176;16.626;2023-04-03T03:55:20;8.23;;;3.65;;
75680;SDS011;64294;49.176;16.626;2023-04-03T03:57:45;7.68;;;3.75;;
75680;SDS011;64294;49.176;16.626;2023-04-03T04:00:11;9.13;;;3.88;;
75680;SDS011;64294;49.176;16.626;2023-04-03T04:02:37;7.28;;;3.90;;
75680;SDS011;64294;49.176;16.626;2023-04-03T04:05:02;7.93;;;4.00;;
75680;SDS011;64294;49.176;16.626;2023-04-03T04:07:28;6.80;;;3.70;;
75680;SDS011;64294;49.176;16.626;2023-04-03T04:09:54;7.93;;;3.50;;
75680;SDS011;64294;49.176;16.626;2023-04-03T04:12:19;8.98;;;3.95;;
75680;SDS011;64294;49.176;16.626;2023-04-03T04:14:45;7.88;;;3.88;;
75680;SDS011;64294;49.176;16.626;2023-04-03T04:17:12;9.00;;;3.88;;
75680;SDS011;64294;49.176;16.626;2023-04-03T04:19:38;6.75;;;3.90;;
75680;SDS011;64294;49.176;16.626;2023-04-03T04:22:03;7.47;;;3.60;;
75680;SDS011;64294;49.176;16.626;2023-04-03T04:24:29;7.97;;;3.92;;
75680;SDS011;64294;49.176;16.626;2023-04-03T04:26:54;8.05;;;3.75;;
75680;SDS011;64294;49.176;16.626;2023-04-03T04:29:20;7.57;;;3.88;;
75680;SDS011;64294;49.176;16.626;2023-04-03T04:31:45;8.73;;;3.78;;
75680;SDS011;64294;49.176;16.626;2023-04-03T04:34:10;7.00;;;3.58;;
75680;SDS011;64294;49.176;16.626;2023-04-03T04:36:37;6.82;;;3.83;;
75680;SDS011;64294;49.176;16.626;2023-04-03T04:39:03;9.15;;;4.28;;
75680;SDS011;64294;49.176;16.626;2023-04-03T04:41:28;8.93;;;4.00;;
75680;SDS011;64294;49.176;16.626;2023-04-03T04:43:54;9.52;;;4.07;;
75680;SDS011;64294;49.176;16.626;2023-04-03T04:46:20;8.80;;;4.10;;
75680;SDS011;64294;49.176;16.626;2023-04-03T04:48:45;7.40;;;4.03;;
75680;SDS011;64294;49.176;16.626;2023-04-03T04:51:10;8.40;;;3.75;;
75680;SDS011;64294;49.176;16.626;2023-04-03T04:53:36;11.20;;;4.00;;
75680;SDS011;64294;49.176;16.626;2023-04-03T04:56:02;8.48;;;3.60;;
75680;SDS011;64294;49.176;16.626;2023-04-03T04:58:28;6.55;;;3.40;;
75680;SDS011;64294;49.176;16.626;2023-04-03T05:01:03;8.57;;;3.60;;
75680;SDS011;64294;49.176;16.626;2023-04-03T05:03:31;8.00;;;4.05;;
75680;SDS011;64294;49.176;16.626;2023-04-03T05:05:56;9.95;;;4.13;;
75680;SDS011;64294;49.176;16.626;2023-04-03T05:08:22;8.30;;;4.18;;
75680;SDS011;64294;49.176;16.626;2023-04-03T05:13:18;8.50;;;4.20;;
75680;SDS011;64294;49.176;16.626;2023-04-03T05:15:44;10.18;;;4.30;;
75680;SDS011;64294;49.176;16.626;2023-04-03T05:18:10;8.32;;;3.97;;
75680;SDS011;64294;49.176;16.626;2023-04-03T05:20:36;7.20;;;3.60;;
75680;SDS011;64294;49.176;16.626;2023-04-03T05:23:02;6.95;;;3.75;;
75680;SDS011;64294;49.176;16.626;2023-04-03T05:25:27;8.75;;;4.28;;
75680;SDS011;64294;49.176;16.626;2023-04-03T05:27:55;9.82;;;4.32;;
75680;SDS011;64294;49.176;16.626;2023-04-03T05:30:21;11.45;;;3.75;;
75680;SDS011;64294;49.176;16.626;2023-04-03T05:32:47;10.32;;;3.95;;
75680;SDS011;64294;49.176;16.626;2023-04-03T05:35:12;7.75;;;4.22;;
75680;SDS011;64294;49.176;16.626;2023-04-03T05:37:38;9.45;;;4.20;;
75680;SDS011;64294;49.176;16.626;2023-04-03T05:40:04;8.63;;;4.00;;
75680;SDS011;64294;49.176;16.626;2023-04-03T05:42:30;7.32;;;3.63;;
75680;SDS011;64294;49.176;16.626;2023-04-03T05:44:55;10.25;;;3.80;;
75680;SDS011;64294;49.176;16.626;2023-04-03T05:47:21;8.40;;;4.00;;
75680;SDS011;64294;49.176;16.626;2023-04-03T05:49:46;7.35;;;3.80;;
75680;SDS011;64294;49.176;16.626;2023-04-03T05:52:18;7.88;;;3.63;;
75680;SDS011;64294;49.176;16.626;2023-04-03T05:54:47;8.00;;;3.80;;
75680;SDS011;64294;49.176;16.626;2023-04-03T05:57:14;10.75;;;3.92;;
75680;SDS011;64294;49.176;16.626;2023-04-03T05:59:41;7.32;;;4.13;;
75680;SDS011;64294;49.176;16.626;2023-04-03T06:02:09;8.63;;;3.97;;
75680;SDS011;64294;49.176;16.626;2023-04-03T06:04:36;10.45;;;3.97;;
75680;SDS011;64294;49.176;16.626;2023-04-03T06:07:01;8.95;;;4.55;;
75680;SDS011;64294;49.176;16.626;2023-04-03T06:09:27;8.48;;;4.13;;
75680;SDS011;64294;49.176;16.626;2023-04-03T06:11:56;10.88;;;5.20;;
75680;SDS011;64294;49.176;16.626;2023-04-03T06:14:23;9.70;;;4.07;;
75680;SDS011;64294;49.176;16.626;2023-04-03T06:16:49;10.27;;;4.15;;
75680;SDS011;64294;49.176;16.626;2023-04-03T06:19:15;7.60;;;4.15;;
75680;SDS011;64294;49.176;16.626;2023-04-03T06:21:41;10.77;;;4.38;;
75680;SDS011;64294;49.176;16.626;2023-04-03T06:24:06;9.30;;;4.53;;
75680;SDS011;64294;49.176;16.626;2023-04-03T06:26:32;7.43;;;4.30;;
75680;SDS011;64294;49.176;16.626;2023-04-03T06:28:58;9.70;;;4.28;;
75680;SDS011;64294;49.176;16.626;2023-04-03T06:31:24;7.93;;;3.67;;
75680;SDS011;64294;49.176;16.626;2023-04-03T06:33:50;9.77;;;3.78;;
75680;SDS011;64294;49.176;16.626;2023-04-03T06:36:17;6.50;;;3.65;;
75680;SDS011;64294;49.176;16.626;2023-04-03T06:38:44;8.30;;;3.50;;
75680;SDS011;64294;49.176;16.626;2023-04-03T06:41:10;7.63;;;3.17;;
75680;SDS011;64294;49.176;16.626;2023-04-03T06:43:36;7.55;;;3.13;;
75680;SDS011;64294;49.176;16.626;2023-04-03T06:46:01;7.55;;;3.20;;
75680;SDS011;64294;49.176;16.626;2023-04-03T06:48:27;6.15;;;3.20;;
75680;SDS011;64294;49.176;16.626;2023-04-03T06:50:53;6.97;;;3.20;;
75680;SDS011;64294;49.176;16.626;2023-04-03T06:53:18;8.73;;;3.13;;
75680;SDS011;64294;49.176;16.626;2023-04-03T06:55:44;6.38;;;2.90;;
75680;SDS011;64294;49.176;16.626;2023-04-03T06:58:10;8.10;;;3.33;;
75680;SDS011;64294;49.176;16.626;2023-04-03T07:00:35;10.23;;;3.42;;
75680;SDS011;64294;49.176;16.626;2023-04-03T07:03:01;6.47;;;3.05;;
75680;SDS011;64294;49.176;16.626;2023-04-03T07:05:26;10.07;;;3.90;;
75680;SDS011;64294;49.176;16.626;2023-04-03T07:07:52;9.32;;;3.63;;
75680;SDS011;64294;49.176;16.626;2023-04-03T07:10:18;6.22;;;3.40;;
75680;SDS011;64294;49.176;16.626;2023-04-03T07:12:43;5.85;;;2.95;;
75680;SDS011;64294;49.176;16.626;2023-04-03T07:15:09;5.72;;;3.13;;
75680;SDS011;64294;49.176;16.626;2023-04-03T07:17:35;6.00;;;3.03;;
75680;SDS011;64294;49.176;16.626;2023-04-03T07:20:02;6.05;;;3.10;;
75680;SDS011;64294;49.176;16.626;2023-04-03T07:22:31;3.95;;;2.55;;
75680;SDS011;64294;49.176;16.626;2023-04-03T07:24:57;6.65;;;3.03;;
75680;SDS011;64294;49.176;16.626;2023-04-03T07:27:23;6.88;;;2.97;;
75680;SDS011;64294;49.176;16.626;2023-04-03T07:29:50;5.45;;;2.78;;
75680;SDS011;64294;49.176;16.626;2023-04-03T07:32:15;6.10;;;3.20;;
75680;SDS011;64294;49.176;16.626;2023-04-03T07:34:41;5.25;;;2.88;;
75680;SDS011;64294;49.176;16.626;2023-04-03T07:37:06;7.20;;;2.90;;
75680;SDS011;64294;49.176;16.626;2023-04-03T07:39:34;6.45;;;3.00;;
75680;SDS011;64294;49.176;16.626;2023-04-03T07:41:59;7.82;;;3.03;;
75680;SDS011;64294;49.176;16.626;2023-04-03T07:44:25;3.83;;;2.70;;
75680;SDS011;64294;49.176;16.626;2023-04-03T07:46:51;5.03;;;3.00;;
75680;SDS011;64294;49.176;16.626;2023-04-03T07:49:17;6.45;;;3.20;;
75680;SDS011;64294;49.176;16.626;2023-04-03T07:51:43;7.18;;;3.60;;
75680;SDS011;64294;49.176;16.626;2023-04-03T07:54:09;7.50;;;3.53;;
75680;SDS011;64294;49.176;16.626;2023-04-03T07:56:35;6.95;;;3.20;;
75680;SDS011;64294;49.176;16.626;2023-04-03T07:59:00;7.47;;;3.13;;
75680;SDS011;64294;49.176;16.626;2023-04-03T08:01:26;8.07;;;3.25;;
75680;SDS011;64294;49.176;16.626;2023-04-03T08:03:51;6.68;;;3.40;;
75680;SDS011;64294;49.176;16.626;2023-04-03T08:06:17;7.10;;;3.15;;
75680;SDS011;64294;49.176;16.626;2023-04-03T08:08:42;4.88;;;3.25;;
75680;SDS011;64294;49.176;16.626;2023-04-03T08:11:09;6.57;;;2.90;;
75680;SDS011;64294;49.176;16.626;2023-04-03T08:13:35;5.93;;;3.10;;
75680;SDS011;64294;49.176;16.626;2023-04-03T08:16:15;6.18;;;3.40;;
75680;SDS011;64294;49.176;16.626;2023-04-03T08:18:42;7.05;;;2.80;;
75680;SDS011;64294;49.176;16.626;2023-04-03T08:21:08;8.85;;;3.00;;
75680;SDS011;64294;49.176;16.626;2023-04-03T08:23:35;6.53;;;2.67;;
75680;SDS011;64294;49.176;16.626;2023-04-03T08:26:08;7.03;;;2.90;;
75680;SDS011;64294;49.176;16.626;2023-04-03T08:28:38;6.72;;;3.30;;
75680;SDS011;64294;49.176;16.626;2023-04-03T08:31:05;4.53;;;2.58;;
75680;SDS011;64294;49.176;16.626;2023-04-03T08:33:32;9.40;;;3.47;;
75680;SDS011;64294;49.176;16.626;2023-04-03T08:35:58;5.28;;;2.90;;
75680;SDS011;64294;49.176;16.626;2023-04-03T08:38:24;4.30;;;2.70;;
75680;SDS011;64294;49.176;16.626;2023-04-03T08:43:55;8.75;;;3.05;;
75680;SDS011;64294;49.176;16.626;2023-04-03T08:49:40;6.90;;;2.80;;
75680;SDS011;64294;49.176;16.626;2023-04-03T08:52:16;4.95;;;2.60;;
75680;SDS011;64294;49.176;16.626;2023-04-03T08:55:00;6.63;;;2.83;;
75680;SDS011;64294;49.176;16.626;2023-04-03T08:57:33;4.85;;;2.45;;
75680;SDS011;64294;49.176;16.626;2023-04-03T09:00:03;4.88;;;2.75;;
75680;SDS011;64294;49.176;16.626;2023-04-03T09:02:34;6.22;;;2.60;;
75680;SDS011;64294;49.176;16.626;2023-04-03T09:05:11;6.07;;;2.67;;
75680;SDS011;64294;49.176;16.626;2023-04-03T09:07:41;6.57;;;2.88;;
75680;SDS011;64294;49.176;16.626;2023-04-03T09:10:10;5.90;;;2.92;;
75680;SDS011;64294;49.176;16.626;2023-04-03T09:12:39;9.55;;;3.40;;
75680;SDS011;64294;49.176;16.626;2023-04-03T09:15:14;4.82;;;2.42;;
75680;SDS011;64294;49.176;16.626;2023-04-03T09:22:57;6.32;;;2.65;;
75680;SDS011;64294;49.176;16.626;2023-04-03T09:25:24;4.25;;;2.58;;
75680;SDS011;64294;49.176;16.626;2023-04-03T09:27:52;6.07;;;2.70;;
75680;SDS011;64294;49.176;16.626;2023-04-03T09:30:22;12.88;;;3.20;;
75680;SDS011;64294;49.176;16.626;2023-04-03T09:32:50;8.73;;;3.03;;
75680;SDS011;64294;49.176;16.626;2023-04-03T09:35:21;7.00;;;2.80;;
75680;SDS011;64294;49.176;16.626;2023-04-03T09:45:54;5.00;;;2.90;;
75680;SDS011;64294;49.176;16.626;2023-04-03T09:48:23;8.65;;;2.88;;
75680;SDS011;64294;49.176;16.626;2023-04-03T09:55:59;6.38;;;2.88;;
75680;SDS011;64294;49.176;16.626;2023-04-03T09:58:32;8.32;;;3.60;;
75680;SDS011;64294;49.176;16.626;2023-04-03T10:01:03;7.63;;;3.08;;
75680;SDS011;64294;49.176;16.626;2023-04-03T10:03:33;7.78;;;3.35;;
75680;SDS011;64294;49.176;16.626;2023-04-03T10:06:01;4.75;;;2.55;;
75680;SDS011;64294;49.176;16.626;2023-04-03T10:08:46;5.20;;;2.33;;
75680;SDS011;64294;49.176;16.626;2023-04-03T10:11:29;6.80;;;2.60;;
75680;SDS011;64294;49.176;16.626;2023-04-03T10:13:56;4.97;;;2.50;;
75680;SDS011;64294;49.176;16.626;2023-04-03T10:16:28;5.43;;;2.58;;
75680;SDS011;64294;49.176;16.626;2023-04-03T10:21:56;4.60;;;2.30;;
75680;SDS011;64294;49.176;16.626;2023-04-03T10:24:35;4.70;;;2.20;;
75680;SDS011;64294;49.176;16.626;2023-04-03T10:27:11;3.13;;;2.10;;
75680;SDS011;64294;49.176;16.626;2023-04-03T10:29:49;3.38;;;1.90;;
75680;SDS011;64294;49.176;16.626;2023-04-03T10:32:26;5.15;;;2.45;;
75680;SDS011;64294;49.176;16.626;2023-04-03T10:35:02;5.50;;;2.85;;
75680;SDS011;64294;49.176;16.626;2023-04-03T10:40:30;3.00;;;2.08;;
75680;SDS011;64294;49.176;16.626;2023-04-03T10:43:09;5.32;;;2.00;;
75680;SDS011;64294;49.176;16.626;2023-04-03T10:48:35;3.58;;;2.00;;
75680;SDS011;64294;49.176;16.626;2023-04-03T10:54:12;4.20;;;2.08;;
75680;SDS011;64294;49.176;16.626;2023-04-03T10:57:03;7.25;;;3.78;;
75680;SDS011;64294;49.176;16.626;2023-04-03T11:04:51;5.03;;;2.65;;
75680;SDS011;64294;49.176;16.626;2023-04-03T11:07:48;8.13;;;3.00;;
75680;SDS011;64294;49.176;16.626;2023-04-03T11:10:21;11.88;;;3.10;;
75680;SDS011;64294;49.176;16.626;2023-04-03T11:13:01;4.90;;;2.20;;
75680;SDS011;64294;49.176;16.626;2023-04-03T11:15:43;5.38;;;2.22;;
75680;SDS011;64294;49.176;16.626;2023-04-03T11:23:52;6.25;;;2.78;;
75680;SDS011;64294;49.176;16.626;2023-04-03T11:26:29;6.60;;;2.30;;
75680;SDS011;64294;49.176;16.626;2023-04-03T11:29:03;6.22;;;2.63;;
75680;SDS011;64294;49.176;16.626;2023-04-03T11:31:39;5.55;;;2.42;;
75680;SDS011;64294;49.176;16.626;2023-04-03T11:34:16;5.72;;;2.17;;
75680;SDS011;64294;49.176;16.626;2023-04-03T11:36:45;4.40;;;2.30;;
75680;SDS011;64294;49.176;16.626;2023-04-03T11:39:22;4.80;;;2.10;;
75680;SDS011;64294;49.176;16.626;2023-04-03T11:41:51;4.95;;;2.17;;
75680;SDS011;64294;49.176;16.626;2023-04-03T11:44:50;4.45;;;2.30;;
75680;SDS011;64294;49.176;16.626;2023-04-03T11:47:10;5.55;;;2.20;;
75680;SDS011;64294;49.176;16.626;2023-04-03T12:29:20;5.70;;;2.10;;
75680;SDS011;64294;49.176;16.626;2023-04-03T12:40:47;3.05;;;1.92;;
75680;SDS011;64294;49.176;16.626;2023-04-03T12:48:54;4.75;;;2.30;;
75680;SDS011;64294;49.176;16.626;2023-04-03T12:51:34;4.05;;;2.13;;
75680;SDS011;64294;49.176;16.626;2023-04-03T12:57:15;5.57;;;2.30;;
75680;SDS011;64294;49.176;16.626;2023-04-03T12:59:43;3.40;;;2.00;;
75680;SDS011;64294;49.176;16.626;2023-04-03T13:02:25;4.38;;;2.00;;
75680;SDS011;64294;49.176;16.626;2023-04-03T13:04:56;6.47;;;2.67;;
75680;SDS011;64294;49.176;16.626;2023-04-03T13:07:24;11.35;;;2.40;;
75680;SDS011;64294;49.176;16.626;2023-04-03T13:09:57;4.05;;;2.30;;
75680;SDS011;64294;49.176;16.626;2023-04-03T13:12:24;6.78;;;2.20;;
75680;SDS011;64294;49.176;16.626;2023-04-03T13:14:54;5.05;;;2.10;;
75680;SDS011;64294;49.176;16.626;2023-04-03T13:17:23;5.25;;;2.20;;
75680;SDS011;64294;49.176;16.626;2023-04-03T13:19:49;4.18;;;2.15;;
75680;SDS011;64294;49.176;16.626;2023-04-03T13:24:58;6.78;;;2.30;;
75680;SDS011;64294;49.176;16.626;2023-04-03T13:27:26;5.05;;;2.45;;
75680;SDS011;64294;49.176;16.626;2023-04-03T13:29:53;5.10;;;2.20;;
75680;SDS011;64294;49.176;16.626;2023-04-03T13:32:22;4.78;;;2.35;;
75680;SDS011;64294;49.176;16.626;2023-04-03T13:34:51;7.97;;;2.47;;
75680;SDS011;64294;49.176;16.626;2023-04-03T13:39:45;7.85;;;2.30;;
75680;SDS011;64294;49.176;16.626;2023-04-03T13:42:31;5.28;;;2.22;;
75680;SDS011;64294;49.176;16.626;2023-04-03T13:47:45;5.22;;;2.20;;
75680;SDS011;64294;49.176;16.626;2023-04-03T13:50:14;5.68;;;2.10;;
75680;SDS011;64294;49.176;16.626;2023-04-03T13:52:43;7.30;;;2.28;;
75680;SDS011;64294;49.176;16.626;2023-04-03T13:55:20;8.23;;;2.83;;
75680;SDS011;64294;49.176;16.626;2023-04-03T13:57:57;4.78;;;2.40;;
75680;SDS011;64294;49.176;16.626;2023-04-03T14:05:55;9.52;;;2.80;;
75680;SDS011;64294;49.176;16.626;2023-04-03T14:08:21;3.25;;;2.20;;
75680;SDS011;64294;49.176;16.626;2023-04-03T14:10:47;5.32;;;2.30;;
75680;SDS011;64294;49.176;16.626;2023-04-03T14:13:15;4.40;;;2.17;;
75680;SDS011;64294;49.176;16.626;2023-04-03T14:15:42;3.13;;;2.05;;
75680;SDS011;64294;49.176;16.626;2023-04-03T14:18:12;5.88;;;2.70;;
75680;SDS011;64294;49.176;16.626;2023-04-03T14:20:38;6.35;;;2.13;;
75680;SDS011;64294;49.176;16.626;2023-04-03T14:23:04;4.47;;;2.00;;
75680;SDS011;64294;49.176;16.626;2023-04-03T14:25:30;5.78;;;2.20;;
75680;SDS011;64294;49.176;16.626;2023-04-03T14:27:55;5.30;;;2.20;;
75680;SDS011;64294;49.176;16.626;2023-04-03T14:30:25;7.28;;;2.20;;
75680;SDS011;64294;49.176;16.626;2023-04-03T14:32:53;4.40;;;2.25;;
75680;SDS011;64294;49.176;16.626;2023-04-03T14:35:19;3.85;;;2.10;;
75680;SDS011;64294;49.176;16.626;2023-04-03T14:37:46;5.22;;;2.30;;
75680;SDS011;64294;49.176;16.626;2023-04-03T14:40:13;18.65;;;7.80;;
75680;SDS011;64294;49.176;16.626;2023-04-03T14:42:43;5.15;;;2.20;;
75680;SDS011;64294;49.176;16.626;2023-04-03T14:45:09;4.70;;;2.17;;
75680;SDS011;64294;49.176;16.626;2023-04-03T14:47:47;2.97;;;1.90;;
75680;SDS011;64294;49.176;16.626;2023-04-03T14:50:16;4.10;;;1.90;;
75680;SDS011;64294;49.176;16.626;2023-04-03T14:52:46;7.38;;;2.35;;
75680;SDS011;64294;49.176;16.626;2023-04-03T14:55:14;5.30;;;2.40;;
75680;SDS011;64294;49.176;16.626;2023-04-03T14:57:41;3.88;;;2.15;;
75680;SDS011;64294;49.176;16.626;2023-04-03T15:00:07;4.68;;;2.40;;
75680;SDS011;64294;49.176;16.626;2023-04-03T15:02:38;5.95;;;2.30;;
75680;SDS011;64294;49.176;16.626;2023-04-03T15:05:06;5.50;;;2.35;;
75680;SDS011;64294;49.176;16.626;2023-04-03T15:07:35;6.68;;;2.75;;
75680;SDS011;64294;49.176;16.626;2023-04-03T15:10:22;5.07;;;2.20;;
75680;SDS011;64294;49.176;16.626;2023-04-03T15:12:49;6.45;;;2.35;;
75680;SDS011;64294;49.176;16.626;2023-04-03T15:15:16;5.32;;;2.35;;
75680;SDS011;64294;49.176;16.626;2023-04-03T15:17:42;6.53;;;2.33;;
75680;SDS011;64294;49.176;16.626;2023-04-03T15:20:13;6.47;;;2.63;;
75680;SDS011;64294;49.176;16.626;2023-04-03T15:22:40;5.35;;;2.30;;
75680;SDS011;64294;49.176;16.626;2023-04-03T15:25:06;5.53;;;2.08;;
75680;SDS011;64294;49.176;16.626;2023-04-03T15:27:31;4.18;;;2.22;;
75680;SDS011;64294;49.176;16.626;2023-04-03T15:29:57;13.40;;;4.75;;
75680;SDS011;64294;49.176;16.626;2023-04-03T15:32:23;6.32;;;2.80;;
75680;SDS011;64294;49.176;16.626;2023-04-03T15:34:49;6.75;;;2.50;;
75680;SDS011;64294;49.176;16.626;2023-04-03T15:37:14;4.25;;;2.33;;
75680;SDS011;64294;49.176;16.626;2023-04-03T15:39:40;4.03;;;2.15;;
75680;SDS011;64294;49.176;16.626;2023-04-03T15:42:05;5.15;;;2.45;;
75680;SDS011;64294;49.176;16.626;2023-04-03T15:44:31;3.92;;;2.30;;
75680;SDS011;64294;49.176;16.626;2023-04-03T15:46:58;5.00;;;2.10;;
75680;SDS011;64294;49.176;16.626;2023-04-03T15:49:25;5.90;;;2.70;;
75680;SDS011;64294;49.176;16.626;2023-04-03T15:51:51;6.03;;;2.50;;
75680;SDS011;64294;49.176;16.626;2023-04-03T15:54:16;7.00;;;2.30;;
75680;SDS011;64294;49.176;16.626;2023-04-03T15:56:42;7.93;;;2.60;;
75680;SDS011;64294;49.176;16.626;2023-04-03T15:59:08;6.30;;;2.40;;
75680;SDS011;64294;49.176;16.626;2023-04-03T16:01:33;4.35;;;2.35;;
75680;SDS011;64294;49.176;16.626;2023-04-03T16:03:59;5.18;;;2.50;;
75680;SDS011;64294;49.176;16.626;2023-04-03T16:06:25;5.32;;;2.40;;
75680;SDS011;64294;49.176;16.626;2023-04-03T16:08:54;5.20;;;2.22;;
75680;SDS011;64294;49.176;16.626;2023-04-03T16:11:22;4.43;;;2.35;;
75680;SDS011;64294;49.176;16.626;2023-04-03T16:13:51;6.55;;;2.50;;
75680;SDS011;64294;49.176;16.626;2023-04-03T16:16:17;3.85;;;2.15;;
75680;SDS011;64294;49.176;16.626;2023-04-03T16:18:43;7.28;;;2.30;;
75680;SDS011;64294;49.176;16.626;2023-04-03T16:21:08;5.00;;;2.28;;
75680;SDS011;64294;49.176;16.626;2023-04-03T16:23:34;4.97;;;2.22;;
75680;SDS011;64294;49.176;16.626;2023-04-03T16:26:00;4.07;;;2.08;;
75680;SDS011;64294;49.176;16.626;2023-04-03T16:28:25;6.25;;;2.47;;
75680;SDS011;64294;49.176;16.626;2023-04-03T16:30:51;3.97;;;2.20;;
75680;SDS011;64294;49.176;16.626;2023-04-03T16:33:16;4.45;;;2.20;;
75680;SDS011;64294;49.176;16.626;2023-04-03T16:35:42;5.63;;;2.22;;
75680;SDS011;64294;49.176;16.626;2023-04-03T16:38:08;5.28;;;2.33;;
75680;SDS011;64294;49.176;16.626;2023-04-03T16:40:33;4.22;;;2.17;;
75680;SDS011;64294;49.176;16.626;2023-04-03T16:43:00;5.60;;;2.28;;
75680;SDS011;64294;49.176;16.626;2023-04-03T16:45:26;3.95;;;2.30;;
75680;SDS011;64294;49.176;16.626;2023-04-03T16:47:52;6.63;;;2.60;;
75680;SDS011;64294;49.176;16.626;2023-04-03T16:50:17;6.32;;;2.80;;